• Join FlightAware (Why Join?)
  • Login
  • US Flag 
04:29AM EDT


 

Airport Tracker/Info


-or-


 

Live Flight TrackerFlight Track Log ✈ USC105 ✈ 11-Oct-2013 ✈ KDPA - KYIP

Flight Track Log - Related Links

Times and Time Zones

All times are in EDT time to prevent confusion due to time zone crossing. See the USC105 flight status page for this flight to view local times or setup timezone preferences in your user account.

Time Position Orientation Groundspeed Altitude Reporting Facility
EDT Latitude Longitude Course Direction KTS MPH feet Rate Location/Type
05:16AM 41.8500 -88.2333 83° East 116 133 3,200  Level Chicago TRACON
05:17AM 41.8167 -88.2000 143° Southeast 128 147 4,100 960 Climbing Chicago TRACON
05:18AM 41.7833 -88.1833 160° South 132 152 5,200 900 Climbing Chicago TRACON
05:19AM 41.7667 -88.1500 124° Southeast 156 180 6,000 360 Climbing Chicago TRACON
05:20AM 41.7667 -88.1000 90° East 178 205 6,000  Level Chicago TRACON
05:21AM 41.7833 -88.0333 71° East 175 201 6,000  Level Chicago TRACON
05:22AM 41.9410 -87.8697 83° East  Level Estimated
05:22AM 41.7814 -88.0050 95° East 176 203 6,000  Level Chicago Center
05:23AM 41.7869 -87.9400 83° East 176 203 6,000  Level Chicago Center
05:24AM 41.7936 -87.8758 82° East 174 200 6,000 480 Level Chicago Center
05:25AM 41.8014 -87.8156 80° East 169 194 7,000 1,020 Climbing Chicago Center
05:26AM 41.8111 -87.7625 76° East 152 175 8,100 900 Climbing Chicago Center
05:27AM 41.8203 -87.7081 77° East 150 173 8,900 360 Climbing Chicago Center
05:28AM 41.8281 -87.6422 81° East 176 203 8,900  Level Chicago Center
05:29AM 41.8383 -87.5694 79° East 197 227 8,900  Level Chicago Center
05:30AM 41.8419 -87.4981 86° East 192 221 8,900  Level Chicago Center
05:31AM 41.8492 -87.4256 82° East 197 227 8,900  Level Chicago Center
05:32AM 41.8558 -87.3536 83° East 196 226 8,900  Level Chicago Center
05:33AM 41.8664 -87.2697 80° East 192 221 8,900  Level Chicago Center
05:34AM 41.8739 -87.1975 82° East 196 226 8,900  Level Chicago Center
05:35AM 41.8822 -87.1250 81° East 198 228 8,900  Level Chicago Center
05:36AM 41.8908 -87.0547 81° East 193 222 8,900  Level Chicago Center
05:37AM 41.8978 -86.9819 83° East 197 227 9,000  Climbing Chicago Center
05:38AM 41.9067 -86.9103 81° East 196 226 9,000  Level Chicago Center
05:39AM 41.9144 -86.8394 82° East 194 223 9,000  Level Chicago Center
05:40AM 41.9217 -86.7672 82° East 195 224 9,000  Level Chicago Center
05:41AM 41.9294 -86.6958 82° East 194 223 9,000  Level Chicago Center
05:42AM 41.9383 -86.6239 81° East 199 229 9,000  Level Chicago Center
05:43AM 41.9456 -86.5508 82° East 198 228 9,000  Level Chicago Center
05:44AM 41.9544 -86.4797 80° East 196 226 9,000  Level Chicago Center
05:45AM 41.9622 -86.4072 82° East 195 224 9,000  Level Chicago Center
05:46AM 41.9700 -86.3347 82° East 196 226 9,000  Level Chicago Center
05:47AM 41.9775 -86.2628 82° East 196 226 9,000  Level Chicago Center
05:48AM 41.9853 -86.1897 82° East 197 227 9,000  Level Chicago Center
05:49AM 41.9931 -86.1169 82° East 197 227 9,000  Level Chicago Center
05:50AM 42.0014 -86.0447 81° East 197 227 9,000  Level Chicago Center
05:51AM 42.0094 -85.9717 82° East 197 227 9,000  Level Chicago Center
05:52AM 42.0169 -85.8986 82° East 198 228 9,000  Level Chicago Center
05:53AM 42.0247 -85.8258 82° East 197 227 9,000  Level Chicago Center
05:54AM 42.0322 -85.7519 82° East 199 229 9,000  Level Chicago Center
05:55AM 42.0403 -85.6781 82° East 199 229 9,000  Level Chicago Center
05:56AM 42.0481 -85.6042 82° East 199 229 9,000  Level Chicago Center
05:57AM 42.0547 -85.5306 83° East 199 229 9,000  Level Chicago Center
05:58AM 42.0628 -85.4567 82° East 199 229 9,000  Level Chicago Center
05:59AM 42.0694 -85.3839 83° East 197 227 9,000  Level Chicago Center
06:00AM 42.0775 -85.3114 81° East 196 226 9,000  Level Chicago Center
06:01AM 42.0847 -85.2392 82° East 195 224 9,000  Level Chicago Center
06:02AM 42.0903 -85.1661 84° East 196 226 9,000  Level Chicago Center
06:03AM 42.0975 -85.0939 82° East 195 224 9,000  Level Chicago Center
06:04AM 42.1050 -85.0208 82° East 196 226 9,000  Level Chicago Center
06:05AM 42.1133 -84.9336 83° East 196 226 9,000  Level Chicago Center
06:06AM 42.1197 -84.8617 83° East 195 224 9,000  Level Chicago Center
06:07AM 42.1269 -84.7903 82° East 193 222 9,000  Level Chicago Center
06:08AM 42.1336 -84.7161 83° East 197 227 9,000 -180 Level Chicago Center
06:09AM 42.1408 -84.6422 82° East 198 228 8,700 -360 Descending Chicago Center
06:10AM 42.1483 -84.5664 82° East 203 234 8,300 -540 Descending Chicago Center
06:11AM 42.1558 -84.4847 83° East 208 239 7,700 -600 Descending Chicago Center
06:12AM 42.1611 -84.4072 85° East 209 241 7,200 -540 Descending Chicago Center
06:13AM 42.1675 -84.3411 83° East 205 236 6,700 -540 Descending Cleveland Center
06:13AM 42.1683 -84.3117 88° East 204 235 6,500 -600 Descending Cleveland Center
06:14AM 42.1731 -84.2633 82° East 208 239 6,100 -660 Descending Cleveland Center
06:14AM 42.1744 -84.2392 86° East 214 246 5,900 -540 Descending Cleveland Center
06:15AM 42.1803 -84.1856 82° East 209 241 5,600 -420 Descending Cleveland Center
06:15AM 42.1833 -84.1617 80° East 206 237 5,500 -540 Descending Cleveland Center
06:16AM 42.1881 -84.1100 83° East 205 236 5,100 -420 Descending Cleveland Center
06:17AM 42.1911 -84.0697 84° East 205 236 5,000 -120 Descending Cleveland Center
06:17AM 42.1936 -84.0361 84° East 202 232 5,000 -120 Level Cleveland Center
06:17AM 42.1986 -84.0033 78° East 187 215 4,900 -420 Descending Cleveland Center
06:18AM 42.2006 -83.9653 86° East 194 223 4,600 -600 Descending Cleveland Center
06:18AM 42.2025 -83.9333 85° East 192 221 4,300 -540 Descending Cleveland Center
06:19AM 42.2050 -83.8944 85° East 193 222 4,100 -540 Descending Cleveland Center
06:19AM 42.2083 -83.8608 82° East 192 221 3,800 -540 Descending Cleveland Center
06:20AM 42.2114 -83.8239 84° East 191 220 3,600 -540 Descending Cleveland Center
06:20AM 42.2144 -83.7883 83° East 183 211 3,300 -540 Descending Cleveland Center
06:21AM 42.2117 -83.7561 97° East 185 213 3,100 -360 Descending Cleveland Center
06:21AM 42.2086 -83.7283 98° East 172 198 3,000 -300 Descending Cleveland Center
06:22AM 42.2047 -83.6947 99° East 170 196 2,800 -300 Descending Cleveland Center
06:23AM 42.2036 -83.6628 93° East 161 185 2,700 -420 Descending Cleveland Center
06:23AM 42.2033 -83.6228 91° East 163 188 2,400 -480 Descending Cleveland Center
06:23AM 42.2036 -83.6092 88° East 154 177 2,300 -720 Descending Cleveland Center
06:24AM 42.2108 -83.5692 76° East 150 173 1,700 -900 Descending Cleveland Center
06:24AM 42.2183 -83.5578 48° Northeast 143 165 1,400 -1,020 Descending Cleveland Center
06:25AM 42.2331 -83.5333 51° Northeast 133 153 700 -960 Descending Cleveland Center